Time;durP1;ratioP1;P1;durP2;ratioP2;P2;SDS_P1;SDS_P2;PMS_P1;PMS_P2;Temp;Humidity;BMP_temperature;BMP_pressure;BME280_temperature;BME280_humidity;BME280_pressure;Samples;Min_cycle;Max_cycle;Signal;HPM_P1;HPM_P2
2021/05/02 00:03:36;;;;;;;18.48;10.60;;;;;;;6.44;60.14;100112.16;10274488;28;20688;-70
2021/05/02 00:08:38;;;;;;;22.45;11.45;;;;;;;6.31;60.53;100113.00;10280688;28;21387;-70
2021/05/02 00:13:40;;;;;;;19.27;11.65;;;;;;;6.20;61.10;100112.88;10284104;28;21525;-70
2021/05/02 00:18:46;;;;;;;17.58;10.52;;;;;;;6.13;61.35;100116.88;10322754;28;20242;-70
2021/05/02 00:23:48;;;;;;;18.27;11.00;;;;;;;6.07;61.72;100120.81;10321063;28;20231;-70
2021/05/02 00:28:53;;;;;;;19.92;11.30;;;;;;;6.09;61.51;100112.75;10321497;28;20234;-70
2021/05/02 00:33:56;;;;;;;17.23;10.38;;;;;;;6.12;61.67;100123.19;10320261;28;20909;-70
2021/05/02 00:38:58;;;;;;;17.88;11.25;;;;;;;6.10;61.55;100123.28;10320298;28;20358;-70
2021/05/02 00:44:04;;;;;;;22.27;11.27;;;;;;;6.08;61.97;100119.00;10321492;28;20238;-70
2021/05/02 00:49:14;;;;;;;24.52;11.98;;;;;;;5.86;62.71;100120.41;10322880;28;20241;-71
2021/05/02 00:54:20;;;;;;;20.45;12.27;;;;;;;5.81;62.93;100124.34;10335724;28;20230;-70
2021/05/02 00:59:31;;;;;;;19.27;11.30;;;;;;;5.76;63.24;100116.66;10319522;28;20239;-70
2021/05/02 01:04:35;;;;;;;20.63;11.55;;;;;;;5.66;63.65;100118.22;10320607;28;20605;-70
2021/05/02 01:09:37;;;;;;;19.73;12.48;;;;;;;5.44;64.25;100113.41;10319426;28;20237;-70
2021/05/02 01:14:44;;;;;;;24.30;13.23;;;;;;;5.42;64.50;100126.81;10304913;28;20287;-70
2021/05/02 01:19:48;;;;;;;22.35;12.75;;;;;;;5.34;64.93;100125.59;10273411;28;20231;-70
2021/05/02 01:24:53;;;;;;;20.58;12.52;;;;;;;5.21;65.80;100121.06;10269660;28;20242;-70
2021/05/02 01:29:56;;;;;;;22.63;12.55;;;;;;;5.16;66.53;100120.47;10272945;28;20239;-70
2021/05/02 01:34:59;;;;;;;21.92;12.05;;;;;;;5.33;66.14;100118.56;10270320;28;20243;-70
2021/05/02 01:40:02;;;;;;;25.35;13.13;;;;;;;5.39;65.63;100118.16;10272195;28;20282;-70
2021/05/02 01:45:05;;;;;;;20.75;12.13;;;;;;;5.27;66.07;100117.16;10273071;28;20251;-70
2021/05/02 01:50:09;;;;;;;24.40;12.30;;;;;;;5.27;66.67;100117.16;10272280;28;20236;-70
2021/05/02 01:55:14;;;;;;;25.77;12.88;;;;;;;5.31;66.30;100113.31;10271358;28;20366;-70
2021/05/02 02:00:38;;;;;;;25.33;13.25;;;;;;;5.24;66.44;100120.00;10273998;28;20619;-70
2021/05/02 02:05:42;;;;;;;24.15;12.52;;;;;;;5.12;67.01;100129.59;10263458;28;20242;-70
2021/05/02 02:10:47;;;;;;;23.67;13.23;;;;;;;4.87;68.39;100132.91;10271102;28;20306;-70
2021/05/02 02:15:49;;;;;;;23.17;12.88;;;;;;;4.89;68.57;100136.31;10291875;28;20263;-71
2021/05/02 02:20:53;;;;;;;27.30;13.45;;;;;;;4.95;68.38;100133.28;10312025;28;20311;-70
2021/05/02 02:26:02;;;;;;;28.63;14.13;;;;;;;5.02;68.36;100124.00;10311006;28;20250;-70
2021/05/02 02:31:07;;;;;;;27.20;14.05;;;;;;;5.23;67.60;100137.78;10311429;28;20242;-71
2021/05/02 02:36:11;;;;;;;29.33;13.55;;;;;;;5.29;67.55;100136.53;10310586;28;20470;-70
2021/05/02 02:41:16;;;;;;;26.55;15.02;;;;;;;5.25;68.03;100133.22;10311502;28;20245;-70
2021/05/02 02:46:19;;;;;;;28.42;14.02;;;;;;;5.18;67.89;100133.69;10310574;28;20578;-70
2021/05/02 02:51:24;;;;;;;24.63;13.27;;;;;;;4.93;68.68;100140.50;10315288;28;20234;-70
2021/05/02 02:56:30;;;;;;;30.17;15.38;;;;;;;4.89;69.23;100139.00;10315996;28;20235;-70
2021/05/02 03:01:33;;;;;;;28.42;15.43;;;;;;;5.02;69.30;100145.31;10315429;28;20257;-70
2021/05/02 03:06:35;;;;;;;26.02;14.35;;;;;;;5.14;69.06;100143.69;10325179;28;20255;-70
2021/05/02 03:11:39;;;;;;;26.48;14.73;;;;;;;5.14;68.93;100138.34;10311195;28;20243;-71
2021/05/02 03:16:44;;;;;;;31.23;15.48;;;;;;;5.28;68.58;100143.66;10282881;28;20239;-70
2021/05/02 03:21:52;;;;;;;26.98;14.07;;;;;;;5.28;68.45;100153.47;10271828;28;20242;-70
2021/05/02 03:27:01;;;;;;;28.85;14.95;;;;;;;5.19;68.87;100143.41;10268578;28;20239;-70
2021/05/02 03:32:08;;;;;;;27.02;14.27;;;;;;;5.14;69.28;100149.00;10269482;28;20231;-70
2021/05/02 03:37:12;;;;;;;28.58;15.23;;;;;;;5.18;69.22;100150.50;10267540;28;20803;-70
2021/05/02 03:42:16;;;;;;;27.80;15.18;;;;;;;4.95;69.71;100165.22;10269870;28;20247;-70
2021/05/02 03:47:18;;;;;;;31.02;15.93;;;;;;;5.01;70.04;100161.34;10267013;28;20255;-70
2021/05/02 03:52:20;;;;;;;30.58;16.08;;;;;;;4.88;70.24;100182.50;10271338;28;20398;-70
2021/05/02 03:57:23;;;;;;;29.48;15.57;;;;;;;4.91;70.38;100173.47;10270011;28;20236;-70
2021/05/02 04:02:25;;;;;;;29.23;15.30;;;;;;;4.95;70.36;100177.69;10270092;28;20302;-70
2021/05/02 04:07:27;;;;;;;23.52;12.13;;;;;;;4.77;71.15;100183.19;10267703;28;20309;-70
2021/05/02 04:12:29;;;;;;;32.47;17.20;;;;;;;4.73;71.69;100196.75;10267934;28;20228;-70
2021/05/02 04:17:31;;;;;;;34.85;16.70;;;;;;;4.71;71.85;100199.50;10304036;28;20250;-70
2021/05/02 04:22:33;;;;;;;34.47;16.88;;;;;;;4.68;72.12;100209.47;10308916;28;20725;-70
2021/05/02 04:27:36;;;;;;;37.47;17.52;;;;;;;4.86;71.24;100210.19;10323417;28;20245;-70
2021/05/02 04:32:38;;;;;;;40.42;19.83;;;;;;;4.67;72.20;100218.41;10324591;28;20230;-70
2021/05/02 04:37:40;;;;;;;35.60;18.98;;;;;;;4.60;72.38;100231.19;10307950;28;20984;-70
2021/05/02 04:42:43;;;;;;;46.63;21.63;;;;;;;4.44;73.28;100233.88;10306685;28;20606;-70
2021/05/02 04:47:45;;;;;;;40.72;19.98;;;;;;;4.65;72.31;100234.44;10307836;28;20239;-70
2021/05/02 04:52:46;;;;;;;35.42;17.45;;;;;;;4.07;73.94;100241.31;10314661;28;20281;-70
2021/05/02 04:57:49;;;;;;;31.35;15.95;;;;;;;4.23;73.05;100241.31;10314240;28;20239;-70
2021/05/02 05:02:51;;;;;;;34.22;15.80;;;;;;;4.53;72.54;100248.47;10312292;28;20795;-70
2021/05/02 05:07:53;;;;;;;31.38;16.27;;;;;;;4.55;72.32;100257.22;10315067;28;20246;-70
2021/05/02 05:12:56;;;;;;;29.05;13.63;;;;;;;4.77;71.43;100248.81;10312412;28;20744;-70
2021/05/02 05:17:58;;;;;;;28.43;14.47;;;;;;;4.76;71.58;100253.28;10275583;28;20238;-70
2021/05/02 05:23:00;;;;;;;30.60;15.25;;;;;;;4.97;71.18;100256.50;10274030;28;20228;-70
2021/05/02 05:28:03;;;;;;;29.98;14.70;;;;;;;4.97;70.98;100259.16;10273088;28;20244;-70
2021/05/02 05:33:08;;;;;;;23.75;11.27;;;;;;;5.18;70.29;100258.84;10272665;28;20240;-70
2021/05/02 05:38:10;;;;;;;25.95;13.75;;;;;;;4.88;71.41;100259.69;10271981;28;20232;-70
2021/05/02 05:43:13;;;;;;;22.90;12.60;;;;;;;4.77;72.15;100262.13;10274254;28;20227;-70
2021/05/02 05:48:16;;;;;;;25.23;13.40;;;;;;;5.09;71.04;100267.41;10271232;28;20239;-70
2021/05/02 05:53:18;;;;;;;27.38;13.27;;;;;;;5.16;71.69;100272.28;10272539;28;20230;-70
2021/05/02 05:58:21;;;;;;;28.50;13.18;;;;;;;5.36;71.24;100265.72;10272267;28;20751;-70
2021/05/02 06:03:22;;;;;;;27.77;12.52;;;;;;;5.41;71.29;100263.63;10274450;28;20243;-71
2021/05/02 06:08:24;;;;;;;25.02;12.32;;;;;;;5.28;71.20;100273.31;10272028;28;20247;-70
2021/05/02 06:13:27;;;;;;;24.80;12.95;;;;;;;5.31;71.80;100278.47;10275048;28;20798;-70
2021/05/02 06:18:29;;;;;;;25.73;13.45;;;;;;;5.73;70.00;100280.31;10327553;28;20239;-70
2021/05/02 06:23:31;;;;;;;22.75;12.50;;;;;;;6.07;69.54;100272.81;10312086;28;20724;-71
2021/05/02 06:28:34;;;;;;;21.63;12.98;;;;;;;5.87;69.78;100271.44;10310788;28;20277;-71
2021/05/02 06:33:40;;;;;;;21.02;10.38;;;;;;;5.50;70.10;100289.69;10277773;28;20235;-71
2021/05/02 06:38:42;;;;;;;22.30;11.52;;;;;;;4.97;72.24;100284.94;10230266;28;20237;-71
2021/05/02 06:43:45;;;;;;;20.02;10.13;;;;;;;5.30;71.66;100287.41;10239703;28;20334;-71
2021/05/02 06:48:47;;;;;;;15.15;9.27;;;;;;;5.37;71.50;100299.38;10233602;28;20244;-71
2021/05/02 06:53:49;;;;;;;18.17;9.60;;;;;;;6.11;68.89;100286.81;10231747;28;20698;-71
2021/05/02 06:58:53;;;;;;;19.13;9.15;;;;;;;5.50;69.12;100275.53;10268254;28;20240;-70
2021/05/02 07:03:55;;;;;;;18.10;10.07;;;;;;;5.54;69.92;100303.72;10270968;28;20228;-71
2021/05/02 07:09:07;;;;;;;19.08;9.45;;;;;;;5.65;69.68;100298.56;10269509;28;20314;-70
2021/05/02 07:14:09;;;;;;;16.48;8.35;;;;;;;6.03;67.94;100311.28;10275999;28;20253;-71
2021/05/02 07:19:13;;;;;;;15.85;8.93;;;;;;;5.98;68.93;100304.53;10311997;28;20238;-70
2021/05/02 07:24:15;;;;;;;20.15;9.80;;;;;;;6.03;69.87;100305.09;10309922;28;20235;-71
2021/05/02 07:29:18;;;;;;;15.30;8.27;;;;;;;5.36;71.87;100316.34;10303779;28;20239;-71
2021/05/02 07:34:22;;;;;;;13.73;8.80;;;;;;;5.59;71.53;100320.25;10308267;28;20273;-71
2021/05/02 07:39:24;;;;;;;21.00;8.80;;;;;;;5.64;71.22;100322.66;10290961;28;21403;-70
2021/05/02 07:44:27;;;;;;;12.23;8.07;;;;;;;6.13;69.74;100324.91;10268360;28;20304;-70
2021/05/02 07:49:29;;;;;;;16.30;8.10;;;;;;;6.57;68.45;100329.19;10268628;28;20736;-71
2021/05/02 07:54:31;;;;;;;12.90;7.60;;;;;;;6.38;68.09;100325.06;10268812;28;20235;-70
2021/05/02 07:59:34;;;;;;;15.60;7.53;;;;;;;6.35;67.75;100319.06;10266217;28;20258;-72
2021/05/02 08:04:38;;;;;;;11.70;7.20;;;;;;;5.78;69.92;100329.78;10255573;28;20258;-70
2021/05/02 08:09:40;;;;;;;11.73;7.22;;;;;;;6.52;68.00;100329.50;10245809;28;20240;-70
2021/05/02 08:14:43;;;;;;;13.35;7.47;;;;;;;6.16;70.20;100330.06;10260143;28;20296;-70
2021/05/02 08:19:44;;;;;;;15.52;8.10;;;;;;;6.18;70.69;100326.34;10307071;28;20235;-70
2021/05/02 08:24:46;;;;;;;14.75;8.23;;;;;;;6.46;69.62;100343.25;10312614;28;20235;-70
2021/05/02 08:29:49;;;;;;;16.25;8.23;;;;;;;6.55;68.00;100344.44;10279624;28;20243;-70
2021/05/02 08:34:51;;;;;;;15.35;8.02;;;;;;;6.68;67.40;100352.53;10274417;28;20545;-69
2021/05/02 08:39:53;;;;;;;13.93;7.75;;;;;;;6.87;66.72;100362.84;10290357;28;20244;-70
2021/05/02 08:44:56;;;;;;;12.57;7.72;;;;;;;7.11;64.99;100350.59;10258064;28;20243;-70
2021/05/02 08:49:58;;;;;;;13.15;7.38;;;;;;;7.90;62.84;100356.75;10236043;28;20246;-70
2021/05/02 08:55:00;;;;;;;12.50;6.22;;;;;;;7.32;62.76;100358.94;10235462;28;20236;-70
2021/05/02 09:00:04;;;;;;;12.50;6.90;;;;;;;7.66;62.30;100357.50;10235542;28;20240;-69
2021/05/02 09:05:07;;;;;;;11.80;6.20;;;;;;;7.33;62.94;100365.16;10242207;28;20623;-70
2021/05/02 09:10:11;;;;;;;11.68;5.88;;;;;;;6.63;64.70;100374.16;10252183;28;20239;-69
2021/05/02 09:15:20;;;;;;;10.35;7.55;;;;;;;7.21;62.66;100375.72;10281815;28;20231;-69
2021/05/02 09:20:45;;;;;;;11.75;5.72;;;;;;;7.36;62.56;100378.31;10314466;28;20235;-69
2021/05/02 09:25:49;;;;;;;7.47;5.05;;;;;;;7.19;62.30;100374.97;10276548;28;20232;-70
2021/05/02 09:31:06;;;;;;;9.82;5.85;;;;;;;7.84;60.32;100379.41;10275130;28;20239;-69
2021/05/02 09:36:09;;;;;;;8.00;5.57;;;;;;;8.10;59.07;100380.28;10273033;28;20235;-69
2021/05/02 09:41:13;;;;;;;6.93;5.53;;;;;;;8.24;58.46;100386.47;10267991;28;20243;-69
2021/05/02 09:46:28;;;;;;;7.55;5.53;;;;;;;8.70;56.59;100389.41;10244338;28;20231;-70
2021/05/02 09:51:31;;;;;;;9.20;5.60;;;;;;;8.25;56.65;100390.84;10234805;28;20675;-69
2021/05/02 09:56:36;;;;;;;7.78;5.57;;;;;;;8.87;55.46;100384.63;10231478;28;20236;-70
2021/05/02 10:01:39;;;;;;;6.60;5.10;;;;;;;9.64;53.92;100385.88;10233455;28;20795;-70
2021/05/02 10:06:41;;;;;;;6.60;4.60;;;;;;;9.60;53.27;100394.28;10233484;28;21487;-69
2021/05/02 10:11:43;;;;;;;9.35;5.43;;;;;;;9.28;54.01;100386.88;10245135;28;20247;-69
2021/05/02 10:16:46;;;;;;;5.82;4.68;;;;;;;8.59;54.87;100392.84;10302145;28;20250;-69
2021/05/02 10:21:48;;;;;;;7.85;5.43;;;;;;;9.97;51.76;100391.47;10311554;28;20234;-70
2021/05/02 10:26:52;;;;;;;8.38;4.40;;;;;;;10.45;49.08;100384.03;10261723;28;20629;-70
2021/05/02 10:32:00;;;;;;;8.98;3.88;;;;;;;10.44;49.19;100379.63;10236761;28;20225;-69
2021/05/02 10:37:29;;;;;;;4.68;3.90;;;;;;;12.87;43.98;100369.69;10232604;28;20233;-69
2021/05/02 10:42:36;;;;;;;6.28;3.53;;;;;;;12.67;42.19;100366.09;10198120;28;20794;-69
2021/05/02 10:47:44;;;;;;;4.82;3.25;;;;;;;10.39;46.00;100385.41;10250831;28;20239;-69
2021/05/02 10:53:00;;;;;;;4.93;3.70;;;;;;;9.51;49.25;100388.66;10270113;28;21478;-69
2021/05/02 10:58:05;;;;;;;7.15;3.30;;;;;;;8.82;53.76;100401.88;10269735;28;20235;-69
2021/05/02 11:03:53;;;;;;;5.60;2.95;;;;;;;8.23;54.33;100406.16;10266874;28;20241;-69
2021/05/02 11:08:57;;;;;;;3.33;2.45;;;;;;;8.66;52.44;100393.25;10270822;28;20606;-70
2021/05/02 11:14:32;;;;;;;3.28;2.72;;;;;;;9.01;51.56;100405.88;10273231;28;20235;-69
2021/05/02 11:19:41;;;;;;;6.07;3.17;;;;;;;10.39;48.64;100406.00;10269683;28;20239;-70
2021/05/02 11:25:09;;;;;;;6.40;2.90;;;;;;;10.04;49.02;100406.09;10257315;28;20243;-70
2021/05/02 11:30:33;;;;;;;3.28;2.03;;;;;;;8.99;48.18;100416.69;10268678;28;20292;-70
2021/05/02 11:35:54;;;;;;;1.77;1.58;;;;;;;11.65;43.19;100401.00;10253932;28;20234;-71
2021/05/02 11:41:03;;;;;;;1.70;1.60;;;;;;;12.52;42.25;100406.06;10232681;28;20812;-70
2021/05/02 11:46:15;;;;;;;1.92;1.40;;;;;;;13.87;39.28;100401.75;10228991;28;20240;-70
2021/05/02 11:51:24;;;;;;;2.05;1.85;;;;;;;12.87;39.79;100410.97;10240075;28;20232;-70
2021/05/02 11:56:30;;;;;;;2.28;1.90;;;;;;;11.31;43.96;100411.94;10246245;28;20629;-70
2021/05/02 12:01:33;;;;;;;3.13;1.85;;;;;;;10.95;45.91;100435.50;10245144;28;20258;-69
2021/05/02 12:06:37;;;;;;;1.50;1.40;;;;;;;10.67;45.92;100431.50;10225019;28;20236;-70
2021/05/02 12:11:40;;;;;;;4.38;2.00;;;;;;;10.40;48.20;100445.31;10246760;28;20228;-69
2021/05/02 12:16:45;;;;;;;3.40;2.50;;;;;;;10.08;48.21;100435.28;10251896;28;20598;-69
2021/05/02 12:21:48;;;;;;;2.70;2.17;;;;;;;10.56;47.40;100434.22;10263221;28;20239;-69
2021/05/02 12:26:52;;;;;;;2.17;1.83;;;;;;;10.84;45.76;100425.63;10236498;28;20628;-69
2021/05/02 12:31:55;;;;;;;3.17;1.95;;;;;;;11.59;43.50;100428.44;10242962;28;20367;-69
2021/05/02 12:37:07;;;;;;;4.22;1.92;;;;;;;12.80;40.79;100436.78;10201205;28;20379;-69
2021/05/02 12:42:11;;;;;;;1.98;1.70;;;;;;;14.44;36.99;100424.22;10188547;28;20291;-69
2021/05/02 12:47:17;;;;;;;4.45;2.00;;;;;;;14.96;36.03;100418.28;10187948;28;20237;-69
2021/05/02 12:52:27;;;;;;;2.45;1.92;;;;;;;12.25;39.78;100429.00;10186704;28;20237;-70
2021/05/02 12:57:31;;;;;;;4.32;1.77;;;;;;;10.80;42.95;100447.47;10187546;28;20241;-70
2021/05/02 13:02:34;;;;;;;2.60;2.30;;;;;;;10.84;44.06;100435.50;10189404;28;20240;-69
2021/05/02 13:07:39;;;;;;;2.40;1.85;;;;;;;11.37;46.15;100449.06;10189913;28;20352;-69
2021/05/02 13:12:52;;;;;;;2.83;2.00;;;;;;;12.32;45.04;100448.22;10193124;28;21467;-70
2021/05/02 13:18:03;;;;;;;5.03;2.00;;;;;;;13.61;42.48;100444.72;10302986;28;20250;-70
2021/05/02 13:23:06;;;;;;;1.98;1.70;;;;;;;14.37;39.68;100448.28;10304343;28;20235;-70
2021/05/02 13:28:08;;;;;;;3.40;2.40;;;;;;;12.96;41.62;100465.91;10274641;28;20347;-70
2021/05/02 13:33:11;;;;;;;3.42;2.42;;;;;;;10.94;46.41;100471.41;10272039;28;20231;-69
2021/05/02 13:38:16;;;;;;;2.92;2.20;;;;;;;9.81;51.16;100470.44;10272555;28;20246;-69
2021/05/02 13:43:18;;;;;;;2.78;2.40;;;;;;;9.07;52.29;100475.09;10273149;28;20239;-69
2021/05/02 13:48:20;;;;;;;4.10;2.38;;;;;;;9.95;49.61;100477.44;10272347;28;20231;-70
2021/05/02 13:53:23;;;;;;;3.90;2.20;;;;;;;10.31;46.70;100475.56;10272385;28;20251;-69
2021/05/02 13:58:25;;;;;;;4.05;2.60;;;;;;;11.15;45.02;100471.50;10273270;28;20818;-70
2021/05/02 14:03:32;;;;;;;4.72;2.33;;;;;;;12.17;43.27;100483.53;10288731;28;20311;-70
2021/05/02 14:08:35;;;;;;;3.20;2.30;;;;;;;11.08;42.88;100483.75;10271461;28;20236;-70
2021/05/02 14:13:38;;;;;;;5.15;2.53;;;;;;;9.61;50.81;100497.94;10275910;28;20314;-69
2021/05/02 14:18:40;;;;;;;2.90;2.38;;;;;;;7.72;57.15;100506.81;10311352;28;20246;-71
2021/05/02 14:23:42;;;;;;;3.85;2.60;;;;;;;7.10;64.50;100510.94;10312269;28;21018;-70
2021/05/02 14:28:44;;;;;;;4.63;2.92;;;;;;;7.75;62.19;100500.41;10308868;28;20266;-71
2021/05/02 14:33:46;;;;;;;2.70;2.13;;;;;;;8.08;61.74;100494.56;10311267;28;20250;-70
2021/05/02 14:38:49;;;;;;;3.65;2.95;;;;;;;8.56;57.45;100493.97;10311757;28;20238;-70
2021/05/02 14:43:51;;;;;;;2.83;2.50;;;;;;;9.37;57.00;100490.72;10311552;28;20235;-70
2021/05/02 14:48:55;;;;;;;2.20;2.00;;;;;;;10.80;51.21;100495.84;10310316;28;20231;-70
2021/05/02 14:53:58;;;;;;;8.80;3.10;;;;;;;12.89;44.93;100483.59;10311552;28;20329;-69
2021/05/02 14:59:00;;;;;;;11.80;2.40;;;;;;;13.71;40.46;100475.25;10309588;28;20242;-70
2021/05/02 15:04:02;;;;;;;3.00;2.50;;;;;;;11.33;42.18;100474.53;10310322;28;20238;-70
2021/05/02 15:09:05;;;;;;;4.85;2.50;;;;;;;10.45;45.68;100491.47;10310790;28;20245;-69
2021/05/02 15:14:07;;;;;;;2.63;2.35;;;;;;;9.56;51.16;100511.66;10305072;28;20291;-70
2021/05/02 15:19:09;;;;;;;4.72;2.72;;;;;;;9.23;51.17;100507.84;10268250;28;20235;-70
2021/05/02 15:24:12;;;;;;;3.75;2.70;;;;;;;9.12;51.59;100523.84;10271298;28;20278;-70
2021/05/02 15:29:15;;;;;;;2.72;2.20;;;;;;;8.46;52.88;100525.88;10268430;28;20236;-70
2021/05/02 15:34:21;;;;;;;2.95;1.65;;;;;;;8.22;50.79;100517.69;10267046;28;20239;-70
2021/05/02 15:39:24;;;;;;;4.63;2.10;;;;;;;8.34;49.23;100516.00;10270396;28;20248;-70
2021/05/02 15:44:26;;;;;;;2.30;1.88;;;;;;;8.74;48.27;100521.25;10268827;28;20235;-70
2021/05/02 15:49:28;;;;;;;3.58;2.22;;;;;;;9.85;47.38;100520.22;10270585;28;20334;-70
2021/05/02 15:54:31;;;;;;;3.60;2.13;;;;;;;11.47;43.34;100516.44;10268444;28;21351;-69
2021/05/02 15:59:33;;;;;;;3.33;2.20;;;;;;;13.82;39.57;100503.94;10267999;28;20239;-69
2021/05/02 16:04:35;;;;;;;3.40;1.90;;;;;;;12.98;39.05;100516.00;10269177;28;20235;-70
2021/05/02 16:09:39;;;;;;;2.70;1.80;;;;;;;12.09;38.99;100506.72;10268649;28;20254;-69
2021/05/02 16:14:43;;;;;;;3.40;2.70;;;;;;;11.26;41.73;100517.19;10282459;28;20267;-70
2021/05/02 16:19:46;;;;;;;4.10;2.83;;;;;;;10.99;43.05;100519.41;10308405;28;20242;-70
2021/05/02 16:24:49;;;;;;;3.83;2.25;;;;;;;10.90;44.44;100517.47;10308292;28;20243;-70
2021/05/02 16:29:53;;;;;;;3.15;2.40;;;;;;;10.28;45.27;100532.19;10308861;28;20226;-70
2021/05/02 16:34:54;;;;;;;5.88;2.67;;;;;;;11.79;42.76;100523.63;10308452;28;20227;-70
2021/05/02 16:39:57;;;;;;;4.78;2.13;;;;;;;14.32;37.78;100536.19;10308710;28;20234;-69
2021/05/02 16:44:59;;;;;;;3.25;2.30;;;;;;;14.06;37.59;100522.41;10310815;28;20235;-70
2021/05/02 16:50:01;;;;;;;4.65;1.80;;;;;;;13.58;36.25;100525.97;10316231;28;20324;-70
2021/05/02 16:55:05;;;;;;;2.05;1.88;;;;;;;14.68;35.70;100531.00;10314702;28;20250;-70
2021/05/02 17:00:09;;;;;;;4.90;2.00;;;;;;;14.00;36.00;100529.25;10316287;28;20238;-69
2021/05/02 17:05:11;;;;;;;3.60;2.30;;;;;;;13.79;36.12;100532.06;10315928;28;20235;-70
2021/05/02 17:10:14;;;;;;;4.13;2.10;;;;;;;14.40;36.57;100547.16;10316316;28;20235;-70
2021/05/02 17:15:16;;;;;;;2.35;1.95;;;;;;;18.27;31.13;100531.81;10219622;28;20231;-70
2021/05/02 17:20:18;;;;;;;5.38;2.20;;;;;;;14.96;34.47;100540.84;10103325;28;21264;-70
2021/05/02 17:25:21;;;;;;;6.50;2.50;;;;;;;11.43;40.56;100548.09;10125279;28;20350;-70
2021/05/02 17:30:23;;;;;;;2.42;2.10;;;;;;;10.46;43.30;100554.09;10259328;28;20371;-69
2021/05/02 17:35:25;;;;;;;4.65;2.70;;;;;;;9.71;44.37;100549.91;10275235;28;20293;-69
2021/05/02 17:40:28;;;;;;;4.18;2.53;;;;;;;9.32;44.84;100559.91;10271418;28;20615;-70
2021/05/02 17:59:10;;;;;;;3.63;2.60;;;;;;;9.94;45.10;100567.84;10271718;28;20239;-70
2021/05/02 18:04:12;;;;;;;2.60;2.38;;;;;;;9.55;46.92;100578.84;10271000;28;20591;-70
2021/05/02 18:09:14;;;;;;;2.78;2.40;;;;;;;8.92;48.23;100578.88;10287528;28;20784;-70
2021/05/02 18:14:17;;;;;;;3.47;2.70;;;;;;;8.88;47.87;100582.72;10281109;28;20242;-70
2021/05/02 18:19:19;;;;;;;4.72;2.53;;;;;;;8.89;48.56;100595.19;10314090;28;20759;-69
2021/05/02 18:24:23;;;;;;;2.95;2.55;;;;;;;8.73;48.93;100589.19;10312886;28;20739;-70
2021/05/02 18:29:26;;;;;;;4.68;2.70;;;;;;;8.51;50.02;100600.53;10310154;28;20724;-69
2021/05/02 18:34:28;;;;;;;3.70;2.67;;;;;;;8.33;50.33;100611.50;10305582;28;20232;-70
2021/05/02 18:39:30;;;;;;;4.15;2.47;;;;;;;8.47;50.68;100612.41;10246855;28;20251;-69
2021/05/02 18:44:34;;;;;;;4.25;2.53;;;;;;;8.45;51.13;100631.22;10246118;28;20240;-69
2021/05/02 18:49:36;;;;;;;5.32;2.58;;;;;;;8.47;51.43;100633.81;10230884;28;20275;-69
2021/05/02 18:54:37;;;;;;;3.78;2.60;;;;;;;7.90;52.42;100640.28;10233853;28;20232;-69
2021/05/02 18:59:40;;;;;;;4.35;2.92;;;;;;;7.93;52.12;100645.44;10231478;28;20243;-70
2021/05/02 19:04:42;;;;;;;3.17;2.60;;;;;;;7.76;52.59;100667.03;10230863;28;20240;-70
2021/05/02 19:09:44;;;;;;;9.65;3.42;;;;;;;7.48;53.22;100663.47;10248737;28;20278;-70
2021/05/02 19:14:47;;;;;;;2.72;2.53;;;;;;;7.56;53.05;100663.00;10267492;28;21015;-70
2021/05/02 19:19:49;;;;;;;5.97;2.70;;;;;;;7.41;53.08;100667.50;10311282;28;20804;-69
2021/05/02 19:24:51;;;;;;;4.28;2.53;;;;;;;7.43;52.94;100676.28;10284379;28;20236;-70
2021/05/02 19:29:53;;;;;;;3.08;2.50;;;;;;;7.44;53.13;100680.69;10237107;28;20251;-70
2021/05/02 19:34:55;;;;;;;3.42;3.00;;;;;;;7.26;53.69;100678.19;10230206;28;20239;-70
2021/05/02 19:39:57;;;;;;;4.65;2.42;;;;;;;7.06;54.03;100683.94;10228621;28;20250;-70
2021/05/02 19:45:00;;;;;;;2.80;2.53;;;;;;;6.95;54.28;100686.41;10231046;28;21379;-70
2021/05/02 19:50:03;;;;;;;4.70;2.70;;;;;;;6.87;55.03;100693.97;10230293;28;20751;-70
2021/05/02 19:55:05;;;;;;;7.05;2.88;;;;;;;6.36;56.21;100696.97;10230758;28;20236;-70
2021/05/02 20:00:10;;;;;;;4.13;2.72;;;;;;;6.19;56.92;100703.31;10246024;28;20251;-70
2021/05/02 20:05:17;;;;;;;4.43;3.10;;;;;;;6.08;57.32;100705.72;10197246;28;20228;-69
2021/05/02 20:10:19;;;;;;;5.30;3.53;;;;;;;6.05;57.36;100701.44;10190535;28;20233;-69
2021/05/02 20:15:22;;;;;;;6.40;3.80;;;;;;;6.09;57.33;100703.00;10223955;28;20306;-70
2021/05/02 20:20:24;;;;;;;4.95;3.20;;;;;;;6.16;57.15;100708.81;10271804;28;20262;-70
2021/05/02 20:25:26;;;;;;;3.17;2.60;;;;;;;6.13;57.68;100715.19;10274179;28;20232;-70
2021/05/02 20:30:29;;;;;;;8.35;3.55;;;;;;;6.07;57.58;100717.34;10277025;28;20644;-70
2021/05/02 20:35:32;;;;;;;5.57;3.38;;;;;;;5.88;58.04;100710.38;10274068;28;20246;-70
2021/05/02 20:40:34;;;;;;;5.00;3.33;;;;;;;5.88;58.54;100720.19;10276318;28;20628;-70
2021/05/02 20:45:37;;;;;;;4.90;3.40;;;;;;;5.63;58.99;100726.88;10273628;28;20236;-70
2021/05/02 20:50:39;;;;;;;4.60;3.25;;;;;;;5.58;58.77;100715.63;10271955;28;20239;-69
2021/05/02 20:55:41;;;;;;;5.55;3.40;;;;;;;5.58;58.77;100717.44;10273499;28;20231;-70
2021/05/02 21:00:44;;;;;;;6.72;3.17;;;;;;;5.36;58.24;100715.94;10276480;28;20251;-70
2021/05/02 21:05:46;;;;;;;3.40;3.08;;;;;;;5.42;58.21;100720.06;10267966;28;20233;-70
2021/05/02 21:10:48;;;;;;;3.80;3.13;;;;;;;5.42;57.66;100720.06;10272791;28;20243;-71
2021/05/02 21:15:50;;;;;;;4.95;3.13;;;;;;;5.65;57.43;100725.00;10294987;28;20231;-70
2021/05/02 21:20:52;;;;;;;4.75;2.80;;;;;;;5.37;57.71;100724.78;10314205;28;20314;-71
2021/05/02 21:25:54;;;;;;;4.85;3.13;;;;;;;5.24;58.06;100730.78;10316465;28;20719;-71
2021/05/02 21:30:57;;;;;;;4.95;3.10;;;;;;;5.25;57.88;100732.47;10312801;28;20252;-70
2021/05/02 21:35:59;;;;;;;4.40;3.13;;;;;;;5.14;58.07;100731.34;10313436;28;20238;-71
2021/05/02 21:41:01;;;;;;;6.07;3.30;;;;;;;5.20;57.80;100728.34;10331360;28;20259;-71
2021/05/02 21:46:05;;;;;;;7.30;3.50;;;;;;;5.13;58.16;100742.91;10314848;28;21852;-71
2021/05/02 21:51:07;;;;;;;5.13;3.00;;;;;;;5.04;58.20;100747.78;10313138;28;20235;-71
2021/05/02 21:56:14;;;;;;;4.60;3.15;;;;;;;4.90;58.61;100750.28;10314798;28;20239;-71
2021/05/02 22:01:19;;;;;;;5.38;2.97;;;;;;;4.77;58.70;100749.19;10314060;28;20615;-71
2021/05/02 22:06:21;;;;;;;3.78;2.95;;;;;;;4.64;59.18;100761.41;10312669;28;20235;-71
2021/05/02 22:11:22;;;;;;;4.65;2.85;;;;;;;4.59;59.19;100769.59;10312727;28;20245;-71
2021/05/02 22:16:25;;;;;;;7.80;3.28;;;;;;;4.49;59.50;100771.00;10287152;28;20274;-71
2021/05/02 22:21:27;;;;;;;5.13;3.58;;;;;;;4.56;59.29;100769.78;10273016;28;20322;-71
2021/05/02 22:26:29;;;;;;;3.67;3.25;;;;;;;4.56;59.28;100772.44;10272862;28;20297;-71
2021/05/02 22:31:32;;;;;;;5.33;2.90;;;;;;;4.54;59.33;100780.47;10272272;28;20266;-71
2021/05/02 22:36:34;;;;;;;6.88;3.17;;;;;;;4.39;59.48;100794.53;10270082;28;20240;-71
2021/05/02 22:41:36;;;;;;;6.22;3.50;;;;;;;4.50;59.38;100791.34;10272659;28;20326;-71
2021/05/02 22:46:39;;;;;;;4.90;3.70;;;;;;;4.42;59.56;100797.06;10271582;28;20879;-71
2021/05/02 22:51:41;;;;;;;4.20;2.93;;;;;;;4.35;59.58;100801.78;10271617;28;20248;-71
2021/05/02 22:56:43;;;;;;;5.07;3.33;;;;;;;4.33;59.61;100800.13;10270934;28;20828;-71
2021/05/02 23:01:47;;;;;;;4.97;2.92;;;;;;;4.32;59.78;100804.59;10286046;28;21389;-71
2021/05/02 23:06:50;;;;;;;5.78;2.70;;;;;;;4.31;59.78;100797.56;10271237;28;20326;-71
2021/05/02 23:11:52;;;;;;;3.20;2.67;;;;;;;4.23;59.87;100810.38;10271958;28;20235;-71
2021/05/02 23:16:54;;;;;;;5.43;2.90;;;;;;;4.34;59.69;100802.75;10298209;28;20242;-71
2021/05/02 23:21:56;;;;;;;6.05;2.92;;;;;;;4.32;59.79;100814.38;10311580;28;20249;-71
2021/05/02 23:26:58;;;;;;;4.70;2.90;;;;;;;4.28;59.97;100800.38;10312677;28;20798;-71
2021/05/02 23:32:04;;;;;;;3.40;2.73;;;;;;;4.17;60.17;100800.91;10311045;28;20235;-71